sensor_id;sensor_type;location;lat;lon;timestamp;temperature;humidity
38090;DHT22;23904;52.322;10.232;2023-12-14T00:00:26;5.30;99.90
38090;DHT22;23904;52.322;10.232;2023-12-14T00:02:52;5.30;99.90
38090;DHT22;23904;52.322;10.232;2023-12-14T00:05:17;5.20;99.90
38090;DHT22;23904;52.322;10.232;2023-12-14T00:07:43;5.20;99.90
38090;DHT22;23904;52.322;10.232;2023-12-14T00:10:08;5.20;99.90
38090;DHT22;23904;52.322;10.232;2023-12-14T00:12:34;5.20;99.90
38090;DHT22;23904;52.322;10.232;2023-12-14T00:14:59;5.20;99.90
38090;DHT22;23904;52.322;10.232;2023-12-14T00:17:25;5.10;99.90
38090;DHT22;23904;52.322;10.232;2023-12-14T00:19:50;5.10;99.90
38090;DHT22;23904;52.322;10.232;2023-12-14T00:22:16;5.10;99.90
38090;DHT22;23904;52.322;10.232;2023-12-14T00:24:42;5.00;99.90
38090;DHT22;23904;52.322;10.232;2023-12-14T00:27:08;5.10;99.90
38090;DHT22;23904;52.322;10.232;2023-12-14T00:29:33;5.10;99.90
38090;DHT22;23904;52.322;10.232;2023-12-14T00:31:59;5.10;99.90
38090;DHT22;23904;52.322;10.232;2023-12-14T00:34:24;5.10;99.90
38090;DHT22;23904;52.322;10.232;2023-12-14T00:36:50;5.10;99.90
38090;DHT22;23904;52.322;10.232;2023-12-14T00:39:15;5.10;99.90
38090;DHT22;23904;52.322;10.232;2023-12-14T00:41:41;5.00;99.90
38090;DHT22;23904;52.322;10.232;2023-12-14T00:44:06;5.00;99.90
38090;DHT22;23904;52.322;10.232;2023-12-14T00:46:32;5.00;99.90
38090;DHT22;23904;52.322;10.232;2023-12-14T00:48:57;5.00;99.90
38090;DHT22;23904;52.322;10.232;2023-12-14T00:51:23;5.00;99.90
38090;DHT22;23904;52.322;10.232;2023-12-14T00:53:48;5.00;99.90
38090;DHT22;23904;52.322;10.232;2023-12-14T00:56:14;4.80;99.90
38090;DHT22;23904;52.322;10.232;2023-12-14T00:58:39;4.90;99.90
38090;DHT22;23904;52.322;10.232;2023-12-14T01:01:05;4.90;99.90
38090;DHT22;23904;52.322;10.232;2023-12-14T01:03:30;4.90;99.90
38090;DHT22;23904;52.322;10.232;2023-12-14T01:05:56;4.90;99.90
38090;DHT22;23904;52.322;10.232;2023-12-14T01:08:22;4.90;99.90
38090;DHT22;23904;52.322;10.232;2023-12-14T01:10:47;4.90;99.90
38090;DHT22;23904;52.322;10.232;2023-12-14T01:13:13;4.90;99.90
38090;DHT22;23904;52.322;10.232;2023-12-14T01:15:38;4.90;99.90
38090;DHT22;23904;52.322;10.232;2023-12-14T01:18:04;4.90;99.90
38090;DHT22;23904;52.322;10.232;2023-12-14T01:20:29;4.90;99.90
38090;DHT22;23904;52.322;10.232;2023-12-14T01:22:55;4.90;99.90
38090;DHT22;23904;52.322;10.232;2023-12-14T01:25:20;4.90;99.90
38090;DHT22;23904;52.322;10.232;2023-12-14T01:27:46;4.90;99.90
38090;DHT22;23904;52.322;10.232;2023-12-14T01:30:12;4.90;99.90
38090;DHT22;23904;52.322;10.232;2023-12-14T01:32:37;4.90;99.90
38090;DHT22;23904;52.322;10.232;2023-12-14T01:35:04;4.90;99.90
38090;DHT22;23904;52.322;10.232;2023-12-14T01:37:30;4.90;99.90
38090;DHT22;23904;52.322;10.232;2023-12-14T01:39:55;4.90;99.90
38090;DHT22;23904;52.322;10.232;2023-12-14T01:42:21;4.80;99.90
38090;DHT22;23904;52.322;10.232;2023-12-14T01:44:46;4.90;99.90
38090;DHT22;23904;52.322;10.232;2023-12-14T01:47:12;4.90;99.90
38090;DHT22;23904;52.322;10.232;2023-12-14T01:49:37;4.90;99.90
38090;DHT22;23904;52.322;10.232;2023-12-14T01:52:03;4.80;99.90
38090;DHT22;23904;52.322;10.232;2023-12-14T01:54:29;4.80;99.90
38090;DHT22;23904;52.322;10.232;2023-12-14T01:56:55;4.80;99.90
38090;DHT22;23904;52.322;10.232;2023-12-14T01:59:20;4.70;99.90
38090;DHT22;23904;52.322;10.232;2023-12-14T02:01:47;4.70;99.90
38090;DHT22;23904;52.322;10.232;2023-12-14T02:04:18;4.70;99.90
38090;DHT22;23904;52.322;10.232;2023-12-14T02:06:43;4.70;99.90
38090;DHT22;23904;52.322;10.232;2023-12-14T02:09:09;4.60;99.90
38090;DHT22;23904;52.322;10.232;2023-12-14T02:11:35;4.70;99.90
38090;DHT22;23904;52.322;10.232;2023-12-14T02:14:09;4.70;99.90
38090;DHT22;23904;52.322;10.232;2023-12-14T02:16:35;4.60;99.90
38090;DHT22;23904;52.322;10.232;2023-12-14T02:19:03;4.70;99.90
38090;DHT22;23904;52.322;10.232;2023-12-14T02:21:32;4.70;99.90
38090;DHT22;23904;52.322;10.232;2023-12-14T02:23:58;4.60;99.90
38090;DHT22;23904;52.322;10.232;2023-12-14T02:26:23;4.50;99.90
38090;DHT22;23904;52.322;10.232;2023-12-14T02:28:49;4.60;99.90
38090;DHT22;23904;52.322;10.232;2023-12-14T02:31:14;4.60;99.90
38090;DHT22;23904;52.322;10.232;2023-12-14T02:33:40;4.60;99.90
38090;DHT22;23904;52.322;10.232;2023-12-14T02:36:06;4.60;99.90
38090;DHT22;23904;52.322;10.232;2023-12-14T02:38:33;4.60;99.90
38090;DHT22;23904;52.322;10.232;2023-12-14T02:40:59;4.60;99.90
38090;DHT22;23904;52.322;10.232;2023-12-14T02:43:24;4.60;99.90
38090;DHT22;23904;52.322;10.232;2023-12-14T02:45:50;4.50;99.90
38090;DHT22;23904;52.322;10.232;2023-12-14T02:48:15;4.50;99.90
38090;DHT22;23904;52.322;10.232;2023-12-14T02:50:41;4.50;99.90
38090;DHT22;23904;52.322;10.232;2023-12-14T02:53:06;4.50;99.90
38090;DHT22;23904;52.322;10.232;2023-12-14T02:55:32;4.50;99.90
38090;DHT22;23904;52.322;10.232;2023-12-14T02:57:58;4.60;99.90
38090;DHT22;23904;52.322;10.232;2023-12-14T03:00:23;4.50;99.90
38090;DHT22;23904;52.322;10.232;2023-12-14T03:02:49;4.60;99.90
38090;DHT22;23904;52.322;10.232;2023-12-14T03:05:14;4.60;99.90
38090;DHT22;23904;52.322;10.232;2023-12-14T03:07:40;4.60;99.90
38090;DHT22;23904;52.322;10.232;2023-12-14T03:10:06;4.60;99.90
38090;DHT22;23904;52.322;10.232;2023-12-14T03:12:32;4.60;99.90
38090;DHT22;23904;52.322;10.232;2023-12-14T03:14:58;4.60;99.90
38090;DHT22;23904;52.322;10.232;2023-12-14T03:17:24;4.60;99.90
38090;DHT22;23904;52.322;10.232;2023-12-14T03:19:49;4.60;99.90
38090;DHT22;23904;52.322;10.232;2023-12-14T03:22:15;4.60;99.90
38090;DHT22;23904;52.322;10.232;2023-12-14T03:24:40;4.60;99.90
38090;DHT22;23904;52.322;10.232;2023-12-14T03:27:06;4.50;99.90
38090;DHT22;23904;52.322;10.232;2023-12-14T03:29:31;4.50;99.90
38090;DHT22;23904;52.322;10.232;2023-12-14T03:31:57;4.50;99.90
38090;DHT22;23904;52.322;10.232;2023-12-14T03:34:24;4.50;99.90
38090;DHT22;23904;52.322;10.232;2023-12-14T03:36:50;4.50;99.90
38090;DHT22;23904;52.322;10.232;2023-12-14T03:39:16;4.50;99.90
38090;DHT22;23904;52.322;10.232;2023-12-14T03:41:45;4.50;99.90
38090;DHT22;23904;52.322;10.232;2023-12-14T03:44:11;4.50;99.90
38090;DHT22;23904;52.322;10.232;2023-12-14T03:46:37;4.50;99.90
38090;DHT22;23904;52.322;10.232;2023-12-14T03:49:02;4.50;99.90
38090;DHT22;23904;52.322;10.232;2023-12-14T03:51:29;4.40;99.90
38090;DHT22;23904;52.322;10.232;2023-12-14T03:53:54;4.40;99.90
38090;DHT22;23904;52.322;10.232;2023-12-14T03:56:20;4.50;99.90
38090;DHT22;23904;52.322;10.232;2023-12-14T03:58:46;4.50;99.90
38090;DHT22;23904;52.322;10.232;2023-12-14T04:01:18;4.50;99.90
38090;DHT22;23904;52.322;10.232;2023-12-14T04:03:45;4.60;99.90
38090;DHT22;23904;52.322;10.232;2023-12-14T04:06:13;4.60;99.90
38090;DHT22;23904;52.322;10.232;2023-12-14T04:08:40;4.50;99.90
38090;DHT22;23904;52.322;10.232;2023-12-14T04:11:06;4.50;99.90
38090;DHT22;23904;52.322;10.232;2023-12-14T04:13:32;4.50;99.90
38090;DHT22;23904;52.322;10.232;2023-12-14T04:15:58;4.50;99.90
38090;DHT22;23904;52.322;10.232;2023-12-14T04:18:24;4.50;99.90
38090;DHT22;23904;52.322;10.232;2023-12-14T04:20:50;4.50;99.90
38090;DHT22;23904;52.322;10.232;2023-12-14T04:23:15;4.60;99.90
38090;DHT22;23904;52.322;10.232;2023-12-14T04:25:41;4.50;99.90
38090;DHT22;23904;52.322;10.232;2023-12-14T04:28:06;4.50;99.90
38090;DHT22;23904;52.322;10.232;2023-12-14T04:30:32;4.50;99.90
38090;DHT22;23904;52.322;10.232;2023-12-14T04:32:57;4.50;99.90
38090;DHT22;23904;52.322;10.232;2023-12-14T04:35:23;4.50;99.90
38090;DHT22;23904;52.322;10.232;2023-12-14T04:37:48;4.60;99.90
38090;DHT22;23904;52.322;10.232;2023-12-14T04:40:14;4.60;99.90
38090;DHT22;23904;52.322;10.232;2023-12-14T04:42:40;4.60;99.90
38090;DHT22;23904;52.322;10.232;2023-12-14T04:45:06;4.60;99.90
38090;DHT22;23904;52.322;10.232;2023-12-14T04:47:32;4.60;99.90
38090;DHT22;23904;52.322;10.232;2023-12-14T04:49:57;4.60;99.90
38090;DHT22;23904;52.322;10.232;2023-12-14T04:52:22;4.60;99.90
38090;DHT22;23904;52.322;10.232;2023-12-14T04:54:48;4.60;99.90
38090;DHT22;23904;52.322;10.232;2023-12-14T04:57:13;4.50;99.90
38090;DHT22;23904;52.322;10.232;2023-12-14T04:59:41;4.50;99.90
38090;DHT22;23904;52.322;10.232;2023-12-14T05:02:07;4.60;99.90
38090;DHT22;23904;52.322;10.232;2023-12-14T05:04:33;4.50;99.90
38090;DHT22;23904;52.322;10.232;2023-12-14T05:06:58;4.50;99.90
38090;DHT22;23904;52.322;10.232;2023-12-14T05:09:24;4.60;99.90
38090;DHT22;23904;52.322;10.232;2023-12-14T05:11:49;4.60;99.90
38090;DHT22;23904;52.322;10.232;2023-12-14T05:14:15;4.60;99.90
38090;DHT22;23904;52.322;10.232;2023-12-14T05:16:40;4.50;99.90
38090;DHT22;23904;52.322;10.232;2023-12-14T05:19:06;4.50;99.90
38090;DHT22;23904;52.322;10.232;2023-12-14T05:21:31;4.50;99.90
38090;DHT22;23904;52.322;10.232;2023-12-14T05:23:57;4.50;99.90
38090;DHT22;23904;52.322;10.232;2023-12-14T05:26:22;4.50;99.90
38090;DHT22;23904;52.322;10.232;2023-12-14T05:28:48;4.60;99.90
38090;DHT22;23904;52.322;10.232;2023-12-14T05:31:13;4.60;99.90
38090;DHT22;23904;52.322;10.232;2023-12-14T05:33:40;4.60;99.90
38090;DHT22;23904;52.322;10.232;2023-12-14T05:36:06;4.60;99.90
38090;DHT22;23904;52.322;10.232;2023-12-14T05:38:37;4.60;99.90
38090;DHT22;23904;52.322;10.232;2023-12-14T05:41:03;4.60;99.90
38090;DHT22;23904;52.322;10.232;2023-12-14T05:43:29;4.60;99.90
38090;DHT22;23904;52.322;10.232;2023-12-14T05:45:54;4.60;99.90
38090;DHT22;23904;52.322;10.232;2023-12-14T05:48:20;4.50;99.90
38090;DHT22;23904;52.322;10.232;2023-12-14T05:50:45;4.60;99.90
38090;DHT22;23904;52.322;10.232;2023-12-14T05:53:11;4.60;99.90
38090;DHT22;23904;52.322;10.232;2023-12-14T05:55:37;4.50;99.90
38090;DHT22;23904;52.322;10.232;2023-12-14T05:58:03;4.50;99.90
38090;DHT22;23904;52.322;10.232;2023-12-14T06:00:29;4.50;99.90
38090;DHT22;23904;52.322;10.232;2023-12-14T06:02:54;4.60;99.90
38090;DHT22;23904;52.322;10.232;2023-12-14T06:05:20;4.60;99.90
38090;DHT22;23904;52.322;10.232;2023-12-14T06:07:45;4.60;99.90
38090;DHT22;23904;52.322;10.232;2023-12-14T06:10:11;4.50;99.90
38090;DHT22;23904;52.322;10.232;2023-12-14T06:12:37;4.60;99.90
38090;DHT22;23904;52.322;10.232;2023-12-14T06:15:02;4.50;99.90
38090;DHT22;23904;52.322;10.232;2023-12-14T06:17:28;4.60;99.90
38090;DHT22;23904;52.322;10.232;2023-12-14T06:19:54;4.60;99.90
38090;DHT22;23904;52.322;10.232;2023-12-14T06:22:19;4.50;99.90
38090;DHT22;23904;52.322;10.232;2023-12-14T06:24:45;4.50;99.90
38090;DHT22;23904;52.322;10.232;2023-12-14T06:27:10;4.50;99.90
38090;DHT22;23904;52.322;10.232;2023-12-14T06:29:36;4.50;99.90
38090;DHT22;23904;52.322;10.232;2023-12-14T06:32:01;4.50;99.90
38090;DHT22;23904;52.322;10.232;2023-12-14T06:34:27;4.50;99.90
38090;DHT22;23904;52.322;10.232;2023-12-14T06:36:53;4.50;99.90
38090;DHT22;23904;52.322;10.232;2023-12-14T06:39:18;4.50;99.90
38090;DHT22;23904;52.322;10.232;2023-12-14T06:41:44;4.50;99.90
38090;DHT22;23904;52.322;10.232;2023-12-14T06:44:09;4.60;99.90
38090;DHT22;23904;52.322;10.232;2023-12-14T06:46:35;4.60;99.90
38090;DHT22;23904;52.322;10.232;2023-12-14T06:49:01;4.60;99.90
38090;DHT22;23904;52.322;10.232;2023-12-14T06:51:27;4.50;99.90
38090;DHT22;23904;52.322;10.232;2023-12-14T06:53:52;4.50;99.90
38090;DHT22;23904;52.322;10.232;2023-12-14T06:56:18;4.50;99.90
38090;DHT22;23904;52.322;10.232;2023-12-14T06:58:44;4.50;99.90
38090;DHT22;23904;52.322;10.232;2023-12-14T07:01:14;4.50;99.90
38090;DHT22;23904;52.322;10.232;2023-12-14T07:03:43;4.50;99.90
38090;DHT22;23904;52.322;10.232;2023-12-14T07:06:16;4.50;99.90
38090;DHT22;23904;52.322;10.232;2023-12-14T07:08:43;4.50;99.90
38090;DHT22;23904;52.322;10.232;2023-12-14T07:11:10;4.50;99.90
38090;DHT22;23904;52.322;10.232;2023-12-14T07:13:37;4.50;99.90
38090;DHT22;23904;52.322;10.232;2023-12-14T07:16:06;4.40;99.90
38090;DHT22;23904;52.322;10.232;2023-12-14T07:18:36;4.50;99.90
38090;DHT22;23904;52.322;10.232;2023-12-14T07:21:06;4.40;99.90
38090;DHT22;23904;52.322;10.232;2023-12-14T07:23:32;4.50;99.90
38090;DHT22;23904;52.322;10.232;2023-12-14T07:25:58;4.50;99.90
38090;DHT22;23904;52.322;10.232;2023-12-14T07:28:23;4.50;99.90
38090;DHT22;23904;52.322;10.232;2023-12-14T07:30:49;4.50;99.90
38090;DHT22;23904;52.322;10.232;2023-12-14T07:33:15;4.50;99.90
38090;DHT22;23904;52.322;10.232;2023-12-14T07:35:40;4.50;99.90
38090;DHT22;23904;52.322;10.232;2023-12-14T07:38:06;4.50;99.90
38090;DHT22;23904;52.322;10.232;2023-12-14T07:40:31;4.50;99.90
38090;DHT22;23904;52.322;10.232;2023-12-14T07:42:57;4.50;99.90
38090;DHT22;23904;52.322;10.232;2023-12-14T07:45:23;4.50;99.90
38090;DHT22;23904;52.322;10.232;2023-12-14T07:47:49;4.40;99.90
38090;DHT22;23904;52.322;10.232;2023-12-14T07:50:14;4.40;99.90
38090;DHT22;23904;52.322;10.232;2023-12-14T07:52:40;4.50;99.90
38090;DHT22;23904;52.322;10.232;2023-12-14T07:55:06;4.50;99.90
38090;DHT22;23904;52.322;10.232;2023-12-14T07:57:32;4.50;99.90
38090;DHT22;23904;52.322;10.232;2023-12-14T07:59:57;4.50;99.90
38090;DHT22;23904;52.322;10.232;2023-12-14T08:02:23;4.50;99.90
38090;DHT22;23904;52.322;10.232;2023-12-14T08:04:49;4.50;99.90
38090;DHT22;23904;52.322;10.232;2023-12-14T08:07:15;4.50;99.90
38090;DHT22;23904;52.322;10.232;2023-12-14T08:09:40;4.50;99.90
38090;DHT22;23904;52.322;10.232;2023-12-14T08:12:06;4.50;99.90
38090;DHT22;23904;52.322;10.232;2023-12-14T08:14:33;4.60;99.90
38090;DHT22;23904;52.322;10.232;2023-12-14T08:16:59;4.60;99.90
38090;DHT22;23904;52.322;10.232;2023-12-14T08:19:26;4.40;99.90
38090;DHT22;23904;52.322;10.232;2023-12-14T08:21:51;4.50;99.90
38090;DHT22;23904;52.322;10.232;2023-12-14T08:24:17;4.50;99.90
38090;DHT22;23904;52.322;10.232;2023-12-14T08:26:42;4.50;99.90
38090;DHT22;23904;52.322;10.232;2023-12-14T08:29:08;4.50;99.90
38090;DHT22;23904;52.322;10.232;2023-12-14T08:31:34;4.50;99.90
38090;DHT22;23904;52.322;10.232;2023-12-14T08:34:00;4.60;99.90
38090;DHT22;23904;52.322;10.232;2023-12-14T08:36:26;4.60;99.90
38090;DHT22;23904;52.322;10.232;2023-12-14T08:38:51;4.60;99.90
38090;DHT22;23904;52.322;10.232;2023-12-14T08:41:17;4.60;99.90
38090;DHT22;23904;52.322;10.232;2023-12-14T08:43:42;4.60;99.90
38090;DHT22;23904;52.322;10.232;2023-12-14T08:46:08;4.60;99.90
38090;DHT22;23904;52.322;10.232;2023-12-14T08:48:35;4.60;99.90
38090;DHT22;23904;52.322;10.232;2023-12-14T08:51:01;4.60;99.90
38090;DHT22;23904;52.322;10.232;2023-12-14T08:53:26;4.70;99.90
38090;DHT22;23904;52.322;10.232;2023-12-14T08:55:53;4.70;99.90
38090;DHT22;23904;52.322;10.232;2023-12-14T08:58:18;4.60;99.90
38090;DHT22;23904;52.322;10.232;2023-12-14T09:00:44;4.60;99.90
38090;DHT22;23904;52.322;10.232;2023-12-14T09:03:09;4.60;99.90
38090;DHT22;23904;52.322;10.232;2023-12-14T09:05:35;4.60;99.90
38090;DHT22;23904;52.322;10.232;2023-12-14T09:08:00;4.60;99.90
38090;DHT22;23904;52.322;10.232;2023-12-14T09:10:26;4.60;99.90
38090;DHT22;23904;52.322;10.232;2023-12-14T09:12:51;4.60;99.90
38090;DHT22;23904;52.322;10.232;2023-12-14T09:15:17;4.60;99.90
38090;DHT22;23904;52.322;10.232;2023-12-14T09:17:42;4.60;99.90
38090;DHT22;23904;52.322;10.232;2023-12-14T09:20:09;4.60;99.90
38090;DHT22;23904;52.322;10.232;2023-12-14T09:22:34;4.60;99.90
38090;DHT22;23904;52.322;10.232;2023-12-14T09:25:00;4.60;99.90
38090;DHT22;23904;52.322;10.232;2023-12-14T09:27:26;4.50;99.90
38090;DHT22;23904;52.322;10.232;2023-12-14T09:29:52;4.50;99.90
38090;DHT22;23904;52.322;10.232;2023-12-14T09:32:17;4.60;99.90
38090;DHT22;23904;52.322;10.232;2023-12-14T09:34:44;4.60;99.90
38090;DHT22;23904;52.322;10.232;2023-12-14T09:37:09;4.60;99.90
38090;DHT22;23904;52.322;10.232;2023-12-14T09:39:36;4.60;99.90
38090;DHT22;23904;52.322;10.232;2023-12-14T09:42:03;4.60;99.90
38090;DHT22;23904;52.322;10.232;2023-12-14T09:44:30;4.60;99.90
38090;DHT22;23904;52.322;10.232;2023-12-14T09:46:58;4.60;99.90
38090;DHT22;23904;52.322;10.232;2023-12-14T09:49:26;4.60;99.90
38090;DHT22;23904;52.322;10.232;2023-12-14T09:51:55;4.60;99.90
38090;DHT22;23904;52.322;10.232;2023-12-14T09:54:21;4.60;99.90
38090;DHT22;23904;52.322;10.232;2023-12-14T09:56:48;4.70;99.90
38090;DHT22;23904;52.322;10.232;2023-12-14T09:59:14;4.60;99.90
38090;DHT22;23904;52.322;10.232;2023-12-14T10:01:40;4.60;99.90
38090;DHT22;23904;52.322;10.232;2023-12-14T10:04:11;4.60;99.90
38090;DHT22;23904;52.322;10.232;2023-12-14T10:06:39;4.60;99.90
38090;DHT22;23904;52.322;10.232;2023-12-14T10:09:05;4.60;99.90
38090;DHT22;23904;52.322;10.232;2023-12-14T10:11:37;4.60;99.90
38090;DHT22;23904;52.322;10.232;2023-12-14T10:14:10;4.60;99.90
38090;DHT22;23904;52.322;10.232;2023-12-14T10:16:43;4.70;99.90
38090;DHT22;23904;52.322;10.232;2023-12-14T10:19:08;4.70;99.90
38090;DHT22;23904;52.322;10.232;2023-12-14T10:21:35;4.80;99.90
38090;DHT22;23904;52.322;10.232;2023-12-14T10:24:01;4.80;99.90
38090;DHT22;23904;52.322;10.232;2023-12-14T10:26:27;4.90;99.90
38090;DHT22;23904;52.322;10.232;2023-12-14T10:28:53;4.90;99.90
38090;DHT22;23904;52.322;10.232;2023-12-14T10:31:19;4.90;99.90
38090;DHT22;23904;52.322;10.232;2023-12-14T10:33:45;4.90;99.90
38090;DHT22;23904;52.322;10.232;2023-12-14T10:36:15;4.90;99.90
38090;DHT22;23904;52.322;10.232;2023-12-14T10:38:43;4.80;99.90
38090;DHT22;23904;52.322;10.232;2023-12-14T10:41:13;4.80;99.90
38090;DHT22;23904;52.322;10.232;2023-12-14T10:43:39;4.80;99.90
38090;DHT22;23904;52.322;10.232;2023-12-14T10:46:07;4.70;99.90
38090;DHT22;23904;52.322;10.232;2023-12-14T10:48:36;4.70;99.90
38090;DHT22;23904;52.322;10.232;2023-12-14T10:51:07;4.70;99.90
38090;DHT22;23904;52.322;10.232;2023-12-14T10:53:34;4.70;99.90
38090;DHT22;23904;52.322;10.232;2023-12-14T10:56:02;4.70;99.90
38090;DHT22;23904;52.322;10.232;2023-12-14T10:58:52;4.70;99.90
38090;DHT22;23904;52.322;10.232;2023-12-14T11:01:23;4.80;99.90
38090;DHT22;23904;52.322;10.232;2023-12-14T11:03:50;4.80;99.90
38090;DHT22;23904;52.322;10.232;2023-12-14T11:06:36;4.80;99.90
38090;DHT22;23904;52.322;10.232;2023-12-14T11:09:08;4.80;99.90
38090;DHT22;23904;52.322;10.232;2023-12-14T11:14:18;4.80;99.90
38090;DHT22;23904;52.322;10.232;2023-12-14T11:16:45;4.70;99.90
38090;DHT22;23904;52.322;10.232;2023-12-14T11:22:06;4.90;99.90
38090;DHT22;23904;52.322;10.232;2023-12-14T11:24:32;4.90;99.90
38090;DHT22;23904;52.322;10.232;2023-12-14T11:27:04;4.90;99.90
38090;DHT22;23904;52.322;10.232;2023-12-14T11:29:31;4.90;99.90
38090;DHT22;23904;52.322;10.232;2023-12-14T11:31:57;4.90;99.90
38090;DHT22;23904;52.322;10.232;2023-12-14T11:34:26;4.90;99.90
38090;DHT22;23904;52.322;10.232;2023-12-14T11:36:54;4.90;99.90
38090;DHT22;23904;52.322;10.232;2023-12-14T11:39:20;4.90;99.90
38090;DHT22;23904;52.322;10.232;2023-12-14T11:42:03;4.90;99.90
38090;DHT22;23904;52.322;10.232;2023-12-14T11:44:29;4.80;99.90
38090;DHT22;23904;52.322;10.232;2023-12-14T11:46:56;4.80;99.90
38090;DHT22;23904;52.322;10.232;2023-12-14T11:49:24;4.80;99.90
38090;DHT22;23904;52.322;10.232;2023-12-14T11:51:52;4.80;99.90
38090;DHT22;23904;52.322;10.232;2023-12-14T11:54:19;4.90;99.90
38090;DHT22;23904;52.322;10.232;2023-12-14T11:56:47;4.90;99.90
38090;DHT22;23904;52.322;10.232;2023-12-14T11:59:17;4.90;99.90
38090;DHT22;23904;52.322;10.232;2023-12-14T12:01:59;4.90;99.90
38090;DHT22;23904;52.322;10.232;2023-12-14T12:04:26;4.80;99.90
38090;DHT22;23904;52.322;10.232;2023-12-14T12:07:03;4.80;99.90
38090;DHT22;23904;52.322;10.232;2023-12-14T12:09:36;4.90;99.90
38090;DHT22;23904;52.322;10.232;2023-12-14T12:12:07;4.90;99.90
38090;DHT22;23904;52.322;10.232;2023-12-14T12:14:35;4.90;99.90
38090;DHT22;23904;52.322;10.232;2023-12-14T12:17:01;4.90;99.90
38090;DHT22;23904;52.322;10.232;2023-12-14T12:19:27;4.90;99.90
38090;DHT22;23904;52.322;10.232;2023-12-14T12:21:52;4.90;99.90
38090;DHT22;23904;52.322;10.232;2023-12-14T12:24:18;4.90;99.90
38090;DHT22;23904;52.322;10.232;2023-12-14T12:26:43;4.90;99.90
38090;DHT22;23904;52.322;10.232;2023-12-14T12:29:09;4.90;99.90
38090;DHT22;23904;52.322;10.232;2023-12-14T12:31:34;4.90;99.90
38090;DHT22;23904;52.322;10.232;2023-12-14T12:34:00;4.90;99.90
38090;DHT22;23904;52.322;10.232;2023-12-14T12:36:25;4.90;99.90
38090;DHT22;23904;52.322;10.232;2023-12-14T12:38:51;4.90;99.90
38090;DHT22;23904;52.322;10.232;2023-12-14T12:41:16;4.90;99.90
38090;DHT22;23904;52.322;10.232;2023-12-14T12:43:43;4.80;99.90
38090;DHT22;23904;52.322;10.232;2023-12-14T12:46:09;4.80;99.90
38090;DHT22;23904;52.322;10.232;2023-12-14T12:48:35;4.80;99.90
38090;DHT22;23904;52.322;10.232;2023-12-14T12:51:01;4.90;99.90
38090;DHT22;23904;52.322;10.232;2023-12-14T12:53:27;4.90;99.90
38090;DHT22;23904;52.322;10.232;2023-12-14T12:55:52;4.80;99.90
38090;DHT22;23904;52.322;10.232;2023-12-14T12:58:18;4.80;99.90
38090;DHT22;23904;52.322;10.232;2023-12-14T13:00:43;4.90;99.90
38090;DHT22;23904;52.322;10.232;2023-12-14T13:03:09;4.90;99.90
38090;DHT22;23904;52.322;10.232;2023-12-14T13:05:35;4.90;99.90
38090;DHT22;23904;52.322;10.232;2023-12-14T13:08:01;4.80;99.90
38090;DHT22;23904;52.322;10.232;2023-12-14T13:10:26;4.90;99.90
38090;DHT22;23904;52.322;10.232;2023-12-14T13:12:53;4.90;99.90
38090;DHT22;23904;52.322;10.232;2023-12-14T13:15:18;4.90;99.90
38090;DHT22;23904;52.322;10.232;2023-12-14T13:17:44;4.90;99.90
38090;DHT22;23904;52.322;10.232;2023-12-14T13:20:10;4.90;99.90
38090;DHT22;23904;52.322;10.232;2023-12-14T13:22:35;4.90;99.90
38090;DHT22;23904;52.322;10.232;2023-12-14T13:25:01;4.90;99.90
38090;DHT22;23904;52.322;10.232;2023-12-14T13:27:27;4.90;99.90
38090;DHT22;23904;52.322;10.232;2023-12-14T13:29:52;5.00;99.90
38090;DHT22;23904;52.322;10.232;2023-12-14T13:32:18;5.00;99.90
38090;DHT22;23904;52.322;10.232;2023-12-14T13:34:44;4.90;99.90
38090;DHT22;23904;52.322;10.232;2023-12-14T13:37:09;4.80;99.90
38090;DHT22;23904;52.322;10.232;2023-12-14T13:39:35;4.90;99.90
38090;DHT22;23904;52.322;10.232;2023-12-14T13:42:06;4.90;99.90
38090;DHT22;23904;52.322;10.232;2023-12-14T13:44:35;4.90;99.90
38090;DHT22;23904;52.322;10.232;2023-12-14T13:47:02;4.90;99.90
38090;DHT22;23904;52.322;10.232;2023-12-14T13:49:29;4.90;99.90
38090;DHT22;23904;52.322;10.232;2023-12-14T13:51:55;4.90;99.90
38090;DHT22;23904;52.322;10.232;2023-12-14T13:54:20;4.80;99.90
38090;DHT22;23904;52.322;10.232;2023-12-14T13:56:46;4.80;99.90
38090;DHT22;23904;52.322;10.232;2023-12-14T13:59:11;4.80;99.90
38090;DHT22;23904;52.322;10.232;2023-12-14T14:01:37;4.90;99.90
38090;DHT22;23904;52.322;10.232;2023-12-14T14:04:03;4.80;99.90
38090;DHT22;23904;52.322;10.232;2023-12-14T14:06:29;4.90;99.90
38090;DHT22;23904;52.322;10.232;2023-12-14T14:08:54;4.90;99.90
38090;DHT22;23904;52.322;10.232;2023-12-14T14:11:20;4.90;99.90
38090;DHT22;23904;52.322;10.232;2023-12-14T14:13:47;4.90;99.90
38090;DHT22;23904;52.322;10.232;2023-12-14T14:16:13;4.90;99.90
38090;DHT22;23904;52.322;10.232;2023-12-14T14:18:39;5.00;99.90
38090;DHT22;23904;52.322;10.232;2023-12-14T14:21:05;5.00;99.90
38090;DHT22;23904;52.322;10.232;2023-12-14T14:23:34;5.00;99.90
38090;DHT22;23904;52.322;10.232;2023-12-14T14:26:00;5.00;99.90
38090;DHT22;23904;52.322;10.232;2023-12-14T14:28:25;5.00;99.90
38090;DHT22;23904;52.322;10.232;2023-12-14T14:30:51;5.00;99.90
38090;DHT22;23904;52.322;10.232;2023-12-14T14:33:17;5.00;99.90
38090;DHT22;23904;52.322;10.232;2023-12-14T14:35:46;4.90;99.90
38090;DHT22;23904;52.322;10.232;2023-12-14T14:38:13;5.00;99.90
38090;DHT22;23904;52.322;10.232;2023-12-14T14:40:39;4.90;99.90
38090;DHT22;23904;52.322;10.232;2023-12-14T14:43:05;5.00;99.90
38090;DHT22;23904;52.322;10.232;2023-12-14T14:45:31;5.00;99.90
38090;DHT22;23904;52.322;10.232;2023-12-14T14:47:56;5.00;99.90
38090;DHT22;23904;52.322;10.232;2023-12-14T14:50:22;5.00;99.90
38090;DHT22;23904;52.322;10.232;2023-12-14T14:52:47;5.00;99.90
38090;DHT22;23904;52.322;10.232;2023-12-14T14:55:13;5.00;99.90
38090;DHT22;23904;52.322;10.232;2023-12-14T14:57:39;4.90;99.90
38090;DHT22;23904;52.322;10.232;2023-12-14T15:00:06;5.00;99.90
38090;DHT22;23904;52.322;10.232;2023-12-14T15:02:32;5.00;99.90
38090;DHT22;23904;52.322;10.232;2023-12-14T15:04:58;5.00;99.90
38090;DHT22;23904;52.322;10.232;2023-12-14T15:07:24;5.00;99.90
38090;DHT22;23904;52.322;10.232;2023-12-14T15:09:49;5.00;99.90
38090;DHT22;23904;52.322;10.232;2023-12-14T15:12:15;5.00;99.90
38090;DHT22;23904;52.322;10.232;2023-12-14T15:14:41;5.00;99.90
38090;DHT22;23904;52.322;10.232;2023-12-14T15:17:06;5.00;99.90
38090;DHT22;23904;52.322;10.232;2023-12-14T15:19:32;4.90;99.90
38090;DHT22;23904;52.322;10.232;2023-12-14T15:21:57;4.90;99.90
38090;DHT22;23904;52.322;10.232;2023-12-14T15:24:23;5.00;99.90
38090;DHT22;23904;52.322;10.232;2023-12-14T15:26:48;4.90;99.90
38090;DHT22;23904;52.322;10.232;2023-12-14T15:29:14;5.00;99.90